Terminal Aerodrome Forecast
Issued by NWS

Home | Current Version | Previous Version | Text Only | Print | Product List | Glossary On
Versions: 1 2 3 4 5 6 7 8 9 10 11 12
837
FTUS42 TJSJ 021721
TAFJMZ
TAF
TJMZ 021721Z 0218/0318 VRB04KT P6SM FEW030
     FM021900 27010KT P6SM VCSH SCT030 SCT040
     FM022300 VRB04KT P6SM FEW060
     FM031400 07006KT P6SM VCSH FEW030
      AMD NOT SKED=

USA.gov is the U.S. government's official web portal to all federal, state and local government web resources and services.